sensor_id;sensor_type;location;lat;lon;timestamp;temperature;humidity
22917;DHT22;11624;53.250;7.456;2022-12-05T00:01:39;10.68;59.44
22917;DHT22;11624;53.250;7.456;2022-12-05T00:04:09;10.66;59.57
22917;DHT22;11624;53.250;7.456;2022-12-05T00:06:39;10.65;59.69
22917;DHT22;11624;53.250;7.456;2022-12-05T00:09:08;10.68;59.68
22917;DHT22;11624;53.250;7.456;2022-12-05T00:11:39;10.73;59.63
22917;DHT22;11624;53.250;7.456;2022-12-05T00:14:11;10.77;59.51
22917;DHT22;11624;53.250;7.456;2022-12-05T00:16:41;10.81;59.53
22917;DHT22;11624;53.250;7.456;2022-12-05T00:19:11;10.81;59.58
22917;DHT22;11624;53.250;7.456;2022-12-05T00:21:39;10.75;59.82
22917;DHT22;11624;53.250;7.456;2022-12-05T00:24:11;10.79;59.83
22917;DHT22;11624;53.250;7.456;2022-12-05T00:26:40;10.84;59.85
22917;DHT22;11624;53.250;7.456;2022-12-05T00:29:08;10.85;59.91
22917;DHT22;11624;53.250;7.456;2022-12-05T00:31:37;10.85;60.08
22917;DHT22;11624;53.250;7.456;2022-12-05T00:34:05;10.86;60.13
22917;DHT22;11624;53.250;7.456;2022-12-05T00:36:35;10.89;60.17
22917;DHT22;11624;53.250;7.456;2022-12-05T00:39:05;10.90;60.31
22917;DHT22;11624;53.250;7.456;2022-12-05T00:41:34;10.90;60.42
22917;DHT22;11624;53.250;7.456;2022-12-05T00:44:02;10.89;60.66
22917;DHT22;11624;53.250;7.456;2022-12-05T00:46:32;10.89;60.74
22917;DHT22;11624;53.250;7.456;2022-12-05T00:49:03;10.85;61.17
22917;DHT22;11624;53.250;7.456;2022-12-05T00:51:34;10.86;61.19
22917;DHT22;11624;53.250;7.456;2022-12-05T00:54:05;10.84;61.28
22917;DHT22;11624;53.250;7.456;2022-12-05T00:56:33;10.86;61.57
22917;DHT22;11624;53.250;7.456;2022-12-05T00:59:02;10.90;61.55
22917;DHT22;11624;53.250;7.456;2022-12-05T01:01:33;10.89;61.64
22917;DHT22;11624;53.250;7.456;2022-12-05T01:04:04;10.93;61.66
22917;DHT22;11624;53.250;7.456;2022-12-05T01:06:33;10.99;61.66
22917;DHT22;11624;53.250;7.456;2022-12-05T01:09:02;11.00;61.68
22917;DHT22;11624;53.250;7.456;2022-12-05T01:11:30;10.97;61.83
22917;DHT22;11624;53.250;7.456;2022-12-05T01:14:06;10.99;61.84
22917;DHT22;11624;53.250;7.456;2022-12-05T01:16:35;10.97;61.96
22917;DHT22;11624;53.250;7.456;2022-12-05T01:19:09;10.97;62.02
22917;DHT22;11624;53.250;7.456;2022-12-05T01:21:38;10.97;62.20
22917;DHT22;11624;53.250;7.456;2022-12-05T01:24:07;10.98;62.19
22917;DHT22;11624;53.250;7.456;2022-12-05T01:26:35;11.00;62.18
22917;DHT22;11624;53.250;7.456;2022-12-05T01:29:03;11.01;62.20
22917;DHT22;11624;53.250;7.456;2022-12-05T01:31:33;10.96;62.34
22917;DHT22;11624;53.250;7.456;2022-12-05T01:34:04;10.89;62.63
22917;DHT22;11624;53.250;7.456;2022-12-05T01:36:34;10.86;62.66
22917;DHT22;11624;53.250;7.456;2022-12-05T01:39:02;10.88;62.73
22917;DHT22;11624;53.250;7.456;2022-12-05T01:41:32;10.94;62.71
22917;DHT22;11624;53.250;7.456;2022-12-05T01:44:03;10.93;62.80
22917;DHT22;11624;53.250;7.456;2022-12-05T01:46:33;10.97;62.83
22917;DHT22;11624;53.250;7.456;2022-12-05T01:49:05;10.95;62.86
22917;DHT22;11624;53.250;7.456;2022-12-05T01:51:38;10.92;62.86
22917;DHT22;11624;53.250;7.456;2022-12-05T01:54:08;10.93;63.00
22917;DHT22;11624;53.250;7.456;2022-12-05T01:56:37;10.95;63.13
22917;DHT22;11624;53.250;7.456;2022-12-05T01:59:08;10.96;63.13
22917;DHT22;11624;53.250;7.456;2022-12-05T02:01:38;10.93;63.21
22917;DHT22;11624;53.250;7.456;2022-12-05T02:04:08;10.93;63.23
22917;DHT22;11624;53.250;7.456;2022-12-05T02:06:38;10.94;63.22
22917;DHT22;11624;53.250;7.456;2022-12-05T02:09:06;10.96;63.27
22917;DHT22;11624;53.250;7.456;2022-12-05T02:11:42;10.95;63.12
22917;DHT22;11624;53.250;7.456;2022-12-05T02:14:20;10.94;63.08
22917;DHT22;11624;53.250;7.456;2022-12-05T02:17:00;10.90;63.19
22917;DHT22;11624;53.250;7.456;2022-12-05T02:20:02;10.92;63.18
22917;DHT22;11624;53.250;7.456;2022-12-05T02:23:01;10.89;63.18
22917;DHT22;11624;53.250;7.456;2022-12-05T02:26:05;10.87;62.97
22917;DHT22;11624;53.250;7.456;2022-12-05T02:28:50;10.88;63.13
22917;DHT22;11624;53.250;7.456;2022-12-05T02:31:26;10.84;63.60
22917;DHT22;11624;53.250;7.456;2022-12-05T02:34:03;10.85;63.54
22917;DHT22;11624;53.250;7.456;2022-12-05T02:36:38;10.88;63.45
22917;DHT22;11624;53.250;7.456;2022-12-05T02:39:19;10.90;63.28
22917;DHT22;11624;53.250;7.456;2022-12-05T02:41:53;10.92;63.59
22917;DHT22;11624;53.250;7.456;2022-12-05T02:44:29;10.96;63.33
22917;DHT22;11624;53.250;7.456;2022-12-05T02:46:59;10.94;63.63
22917;DHT22;11624;53.250;7.456;2022-12-05T02:49:30;10.98;63.55
22917;DHT22;11624;53.250;7.456;2022-12-05T02:52:00;10.97;63.67
22917;DHT22;11624;53.250;7.456;2022-12-05T02:54:32;11.00;63.64
22917;DHT22;11624;53.250;7.456;2022-12-05T02:57:02;10.98;63.66
22917;DHT22;11624;53.250;7.456;2022-12-05T02:59:31;11.01;63.69
22917;DHT22;11624;53.250;7.456;2022-12-05T03:02:00;11.07;63.51
22917;DHT22;11624;53.250;7.456;2022-12-05T03:04:29;10.99;63.64
22917;DHT22;11624;53.250;7.456;2022-12-05T03:06:59;11.02;63.62
22917;DHT22;11624;53.250;7.456;2022-12-05T03:09:33;11.03;63.50
22917;DHT22;11624;53.250;7.456;2022-12-05T03:12:07;10.98;63.69
22917;DHT22;11624;53.250;7.456;2022-12-05T03:14:41;11.01;63.69
22917;DHT22;11624;53.250;7.456;2022-12-05T03:17:15;10.99;63.57
22917;DHT22;11624;53.250;7.456;2022-12-05T03:19:48;10.97;63.81
22917;DHT22;11624;53.250;7.456;2022-12-05T03:22:25;10.98;63.70
22917;DHT22;11624;53.250;7.456;2022-12-05T03:24:57;11.00;63.74
22917;DHT22;11624;53.250;7.456;2022-12-05T03:27:28;11.01;63.67
22917;DHT22;11624;53.250;7.456;2022-12-05T03:30:02;11.01;63.60
22917;DHT22;11624;53.250;7.456;2022-12-05T03:32:36;11.00;63.44
22917;DHT22;11624;53.250;7.456;2022-12-05T03:35:11;10.99;63.79
22917;DHT22;11624;53.250;7.456;2022-12-05T03:37:45;10.97;63.86
22917;DHT22;11624;53.250;7.456;2022-12-05T03:40:25;10.99;63.56
22917;DHT22;11624;53.250;7.456;2022-12-05T03:42:58;10.94;64.05
22917;DHT22;11624;53.250;7.456;2022-12-05T03:45:34;10.86;64.05
22917;DHT22;11624;53.250;7.456;2022-12-05T03:48:09;10.87;63.84
22917;DHT22;11624;53.250;7.456;2022-12-05T03:50:43;10.92;64.08
22917;DHT22;11624;53.250;7.456;2022-12-05T03:53:16;10.90;64.18
22917;DHT22;11624;53.250;7.456;2022-12-05T03:55:53;10.92;64.10
22917;DHT22;11624;53.250;7.456;2022-12-05T03:58:26;10.88;64.38
22917;DHT22;11624;53.250;7.456;2022-12-05T04:00:56;10.93;64.34
22917;DHT22;11624;53.250;7.456;2022-12-05T04:03:31;10.94;64.12
22917;DHT22;11624;53.250;7.456;2022-12-05T04:06:11;10.94;64.25
22917;DHT22;11624;53.250;7.456;2022-12-05T04:08:43;10.98;64.25
22917;DHT22;11624;53.250;7.456;2022-12-05T04:11:15;10.99;64.21
22917;DHT22;11624;53.250;7.456;2022-12-05T04:13:48;10.99;64.27
22917;DHT22;11624;53.250;7.456;2022-12-05T04:16:20;11.02;64.24
22917;DHT22;11624;53.250;7.456;2022-12-05T04:19:14;11.02;64.01
22917;DHT22;11624;53.250;7.456;2022-12-05T04:21:47;10.98;64.14
22917;DHT22;11624;53.250;7.456;2022-12-05T04:24:18;10.97;64.34
22917;DHT22;11624;53.250;7.456;2022-12-05T04:27:19;10.98;64.06
22917;DHT22;11624;53.250;7.456;2022-12-05T04:29:55;11.03;64.10
22917;DHT22;11624;53.250;7.456;2022-12-05T04:32:27;11.02;64.33
22917;DHT22;11624;53.250;7.456;2022-12-05T04:35:03;11.03;64.19
22917;DHT22;11624;53.250;7.456;2022-12-05T04:37:36;11.01;64.34
22917;DHT22;11624;53.250;7.456;2022-12-05T04:40:10;11.01;64.37
22917;DHT22;11624;53.250;7.456;2022-12-05T04:42:40;10.99;64.49
22917;DHT22;11624;53.250;7.456;2022-12-05T04:45:12;10.97;64.47
22917;DHT22;11624;53.250;7.456;2022-12-05T04:47:45;10.96;64.43
22917;DHT22;11624;53.250;7.456;2022-12-05T04:50:17;10.99;64.47
22917;DHT22;11624;53.250;7.456;2022-12-05T04:52:49;11.01;64.43
22917;DHT22;11624;53.250;7.456;2022-12-05T04:55:20;11.05;64.41
22917;DHT22;11624;53.250;7.456;2022-12-05T04:58:01;11.05;64.03
22917;DHT22;11624;53.250;7.456;2022-12-05T05:00:30;11.04;64.36
22917;DHT22;11624;53.250;7.456;2022-12-05T05:03:05;11.04;64.34
22917;DHT22;11624;53.250;7.456;2022-12-05T05:05:37;11.04;64.37
22917;DHT22;11624;53.250;7.456;2022-12-05T05:08:15;10.98;64.30
22917;DHT22;11624;53.250;7.456;2022-12-05T05:10:51;10.98;64.31
22917;DHT22;11624;53.250;7.456;2022-12-05T05:13:23;10.98;64.53
22917;DHT22;11624;53.250;7.456;2022-12-05T05:15:51;10.98;64.57
22917;DHT22;11624;53.250;7.456;2022-12-05T05:18:19;10.96;64.55
22917;DHT22;11624;53.250;7.456;2022-12-05T05:20:49;10.96;64.56
22917;DHT22;11624;53.250;7.456;2022-12-05T05:23:17;10.95;64.69
22917;DHT22;11624;53.250;7.456;2022-12-05T05:25:45;10.94;64.76
22917;DHT22;11624;53.250;7.456;2022-12-05T05:28:18;10.98;64.72
22917;DHT22;11624;53.250;7.456;2022-12-05T05:30:46;11.01;64.60
22917;DHT22;11624;53.250;7.456;2022-12-05T05:33:14;11.01;64.67
22917;DHT22;11624;53.250;7.456;2022-12-05T05:35:42;10.99;64.68
22917;DHT22;11624;53.250;7.456;2022-12-05T05:38:12;11.00;64.68
22917;DHT22;11624;53.250;7.456;2022-12-05T05:40:40;11.04;64.66
22917;DHT22;11624;53.250;7.456;2022-12-05T05:43:08;11.05;64.61
22917;DHT22;11624;53.250;7.456;2022-12-05T05:45:36;11.11;64.52
22917;DHT22;11624;53.250;7.456;2022-12-05T05:48:04;11.10;64.43
22917;DHT22;11624;53.250;7.456;2022-12-05T05:50:32;11.08;64.50
22917;DHT22;11624;53.250;7.456;2022-12-05T05:53:00;11.03;64.56
22917;DHT22;11624;53.250;7.456;2022-12-05T05:55:30;11.05;64.57
22917;DHT22;11624;53.250;7.456;2022-12-05T05:57:58;11.03;64.66
22917;DHT22;11624;53.250;7.456;2022-12-05T06:00:26;11.02;64.73
22917;DHT22;11624;53.250;7.456;2022-12-05T06:02:54;11.03;64.69
22917;DHT22;11624;53.250;7.456;2022-12-05T06:05:22;11.04;64.66
22917;DHT22;11624;53.250;7.456;2022-12-05T06:07:51;11.02;64.67
22917;DHT22;11624;53.250;7.456;2022-12-05T06:10:19;11.03;64.69
22917;DHT22;11624;53.250;7.456;2022-12-05T06:12:49;11.05;64.56
22917;DHT22;11624;53.250;7.456;2022-12-05T06:15:17;11.02;64.56
22917;DHT22;11624;53.250;7.456;2022-12-05T06:17:45;11.01;64.64
22917;DHT22;11624;53.250;7.456;2022-12-05T06:20:13;11.02;64.59
22917;DHT22;11624;53.250;7.456;2022-12-05T06:22:41;11.00;64.53
22917;DHT22;11624;53.250;7.456;2022-12-05T06:25:09;10.96;64.63
22917;DHT22;11624;53.250;7.456;2022-12-05T06:27:37;10.93;64.64
22917;DHT22;11624;53.250;7.456;2022-12-05T06:30:08;10.87;64.72
22917;DHT22;11624;53.250;7.456;2022-12-05T06:32:36;10.88;64.89
22917;DHT22;11624;53.250;7.456;2022-12-05T06:35:04;10.89;64.79
22917;DHT22;11624;53.250;7.456;2022-12-05T06:37:41;10.84;64.76
22917;DHT22;11624;53.250;7.456;2022-12-05T06:40:09;10.85;64.82
22917;DHT22;11624;53.250;7.456;2022-12-05T06:42:38;10.86;64.86
22917;DHT22;11624;53.250;7.456;2022-12-05T06:45:08;10.84;64.85
22917;DHT22;11624;53.250;7.456;2022-12-05T06:47:36;10.83;64.93
22917;DHT22;11624;53.250;7.456;2022-12-05T06:50:06;10.86;64.82
22917;DHT22;11624;53.250;7.456;2022-12-05T06:52:34;10.84;64.60
22917;DHT22;11624;53.250;7.456;2022-12-05T06:55:03;10.81;64.86
22917;DHT22;11624;53.250;7.456;2022-12-05T06:57:31;10.85;64.69
22917;DHT22;11624;53.250;7.456;2022-12-05T06:59:59;10.82;64.72
22917;DHT22;11624;53.250;7.456;2022-12-05T07:02:42;10.77;64.74
22917;DHT22;11624;53.250;7.456;2022-12-05T07:05:11;10.77;64.73
22917;DHT22;11624;53.250;7.456;2022-12-05T07:07:39;10.75;64.80
22917;DHT22;11624;53.250;7.456;2022-12-05T07:10:07;10.74;64.92
22917;DHT22;11624;53.250;7.456;2022-12-05T07:12:35;10.77;64.81
22917;DHT22;11624;53.250;7.456;2022-12-05T07:15:04;10.73;64.82
22917;DHT22;11624;53.250;7.456;2022-12-05T07:17:35;10.74;64.75
22917;DHT22;11624;53.250;7.456;2022-12-05T07:20:06;10.72;64.70
22917;DHT22;11624;53.250;7.456;2022-12-05T07:22:36;10.71;64.78
22917;DHT22;11624;53.250;7.456;2022-12-05T07:25:05;10.66;64.83
22917;DHT22;11624;53.250;7.456;2022-12-05T07:27:33;10.64;64.94
22917;DHT22;11624;53.250;7.456;2022-12-05T07:30:01;10.66;64.91
22917;DHT22;11624;53.250;7.456;2022-12-05T07:32:30;10.68;64.85
22917;DHT22;11624;53.250;7.456;2022-12-05T07:34:59;10.67;64.86
22917;DHT22;11624;53.250;7.456;2022-12-05T07:37:28;10.70;64.66
22917;DHT22;11624;53.250;7.456;2022-12-05T07:39:56;10.69;64.72
22917;DHT22;11624;53.250;7.456;2022-12-05T07:42:25;10.66;64.79
22917;DHT22;11624;53.250;7.456;2022-12-05T07:44:53;10.66;64.79
22917;DHT22;11624;53.250;7.456;2022-12-05T07:47:21;10.67;64.79
22917;DHT22;11624;53.250;7.456;2022-12-05T07:49:49;10.66;64.68
22917;DHT22;11624;53.250;7.456;2022-12-05T07:52:17;10.67;64.70
22917;DHT22;11624;53.250;7.456;2022-12-05T07:54:47;10.71;64.51
22917;DHT22;11624;53.250;7.456;2022-12-05T07:57:15;10.68;64.48
22917;DHT22;11624;53.250;7.456;2022-12-05T07:59:43;10.68;64.54
22917;DHT22;11624;53.250;7.456;2022-12-05T08:02:11;10.67;64.54
22917;DHT22;11624;53.250;7.456;2022-12-05T08:04:39;10.69;64.36
22917;DHT22;11624;53.250;7.456;2022-12-05T08:07:09;10.58;64.53
22917;DHT22;11624;53.250;7.456;2022-12-05T08:09:37;10.60;64.72
22917;DHT22;11624;53.250;7.456;2022-12-05T08:12:07;10.66;64.62
22917;DHT22;11624;53.250;7.456;2022-12-05T08:14:35;10.67;64.43
22917;DHT22;11624;53.250;7.456;2022-12-05T08:17:03;10.65;64.47
22917;DHT22;11624;53.250;7.456;2022-12-05T08:19:32;10.63;64.42
22917;DHT22;11624;53.250;7.456;2022-12-05T08:22:01;10.64;64.35
22917;DHT22;11624;53.250;7.456;2022-12-05T08:24:29;10.62;64.38
22917;DHT22;11624;53.250;7.456;2022-12-05T08:26:57;10.60;64.28
22917;DHT22;11624;53.250;7.456;2022-12-05T08:29:26;10.62;64.24
22917;DHT22;11624;53.250;7.456;2022-12-05T08:31:54;10.62;64.26
22917;DHT22;11624;53.250;7.456;2022-12-05T08:34:22;10.64;64.19
22917;DHT22;11624;53.250;7.456;2022-12-05T08:36:50;10.63;64.30
22917;DHT22;11624;53.250;7.456;2022-12-05T08:39:19;10.68;64.11
22917;DHT22;11624;53.250;7.456;2022-12-05T08:41:47;10.63;64.20
22917;DHT22;11624;53.250;7.456;2022-12-05T08:44:16;10.62;64.26
22917;DHT22;11624;53.250;7.456;2022-12-05T08:46:47;10.63;64.24
22917;DHT22;11624;53.250;7.456;2022-12-05T08:49:16;10.67;64.13
22917;DHT22;11624;53.250;7.456;2022-12-05T08:51:44;10.66;64.02
22917;DHT22;11624;53.250;7.456;2022-12-05T08:54:13;10.60;64.18
22917;DHT22;11624;53.250;7.456;2022-12-05T08:56:41;10.62;64.11
22917;DHT22;11624;53.250;7.456;2022-12-05T08:59:09;10.58;64.27
22917;DHT22;11624;53.250;7.456;2022-12-05T09:01:37;10.62;64.29
22917;DHT22;11624;53.250;7.456;2022-12-05T09:04:08;10.59;64.12
22917;DHT22;11624;53.250;7.456;2022-12-05T09:06:36;10.62;64.12
22917;DHT22;11624;53.250;7.456;2022-12-05T09:09:06;10.63;64.01
22917;DHT22;11624;53.250;7.456;2022-12-05T09:11:37;10.57;64.14
22917;DHT22;11624;53.250;7.456;2022-12-05T09:14:06;10.54;64.24
22917;DHT22;11624;53.250;7.456;2022-12-05T09:16:36;10.59;64.11
22917;DHT22;11624;53.250;7.456;2022-12-05T09:19:07;10.63;64.06
22917;DHT22;11624;53.250;7.456;2022-12-05T09:21:39;10.59;63.89
22917;DHT22;11624;53.250;7.456;2022-12-05T09:24:08;10.57;64.04
22917;DHT22;11624;53.250;7.456;2022-12-05T09:26:38;10.60;64.00
22917;DHT22;11624;53.250;7.456;2022-12-05T09:29:06;10.59;64.18
22917;DHT22;11624;53.250;7.456;2022-12-05T09:31:43;10.64;64.11
22917;DHT22;11624;53.250;7.456;2022-12-05T09:34:11;10.66;64.05
22917;DHT22;11624;53.250;7.456;2022-12-05T09:36:42;10.69;64.09
22917;DHT22;11624;53.250;7.456;2022-12-05T09:39:10;10.69;64.01
22917;DHT22;11624;53.250;7.456;2022-12-05T09:42:14;10.64;63.69
22917;DHT22;11624;53.250;7.456;2022-12-05T09:47:41;10.57;63.95
22917;DHT22;11624;53.250;7.456;2022-12-05T09:50:14;10.62;64.05
22917;DHT22;11624;53.250;7.456;2022-12-05T09:53:00;10.64;63.81
22917;DHT22;11624;53.250;7.456;2022-12-05T09:55:35;10.62;63.98
22917;DHT22;11624;53.250;7.456;2022-12-05T09:58:17;10.67;63.69
22917;DHT22;11624;53.250;7.456;2022-12-05T10:00:47;10.67;63.92
22917;DHT22;11624;53.250;7.456;2022-12-05T10:03:23;10.68;63.67
22917;DHT22;11624;53.250;7.456;2022-12-05T10:06:01;10.71;63.64
22917;DHT22;11624;53.250;7.456;2022-12-05T10:08:53;10.71;63.62
22917;DHT22;11624;53.250;7.456;2022-12-05T10:11:27;10.65;63.72
22917;DHT22;11624;53.250;7.456;2022-12-05T10:14:03;10.68;63.58
22917;DHT22;11624;53.250;7.456;2022-12-05T10:16:36;10.72;63.71
22917;DHT22;11624;53.250;7.456;2022-12-05T10:19:11;10.67;63.76
22917;DHT22;11624;53.250;7.456;2022-12-05T10:21:46;10.71;63.66
22917;DHT22;11624;53.250;7.456;2022-12-05T10:24:22;10.73;63.66
22917;DHT22;11624;53.250;7.456;2022-12-05T10:26:56;10.78;63.69
22917;DHT22;11624;53.250;7.456;2022-12-05T10:29:27;10.72;63.67
22917;DHT22;11624;53.250;7.456;2022-12-05T10:32:03;10.65;63.62
22917;DHT22;11624;53.250;7.456;2022-12-05T10:34:34;10.66;63.95
22917;DHT22;11624;53.250;7.456;2022-12-05T10:37:10;10.65;63.88
22917;DHT22;11624;53.250;7.456;2022-12-05T10:39:42;10.68;64.01
22917;DHT22;11624;53.250;7.456;2022-12-05T10:42:13;10.69;64.04
22917;DHT22;11624;53.250;7.456;2022-12-05T10:44:42;10.67;64.11
22917;DHT22;11624;53.250;7.456;2022-12-05T10:47:11;10.64;64.14
22917;DHT22;11624;53.250;7.456;2022-12-05T10:49:39;10.65;64.23
22917;DHT22;11624;53.250;7.456;2022-12-05T10:52:08;10.70;64.24
22917;DHT22;11624;53.250;7.456;2022-12-05T10:54:43;10.68;64.10
22917;DHT22;11624;53.250;7.456;2022-12-05T10:57:21;10.72;63.82
22917;DHT22;11624;53.250;7.456;2022-12-05T10:59:49;10.70;64.19
22917;DHT22;11624;53.250;7.456;2022-12-05T11:02:23;10.75;63.99
22917;DHT22;11624;53.250;7.456;2022-12-05T11:04:53;10.71;64.26
22917;DHT22;11624;53.250;7.456;2022-12-05T11:07:25;10.75;64.11
22917;DHT22;11624;53.250;7.456;2022-12-05T11:09:55;10.77;64.14
22917;DHT22;11624;53.250;7.456;2022-12-05T11:12:51;10.72;63.84
22917;DHT22;11624;53.250;7.456;2022-12-05T11:15:20;10.74;64.21
22917;DHT22;11624;53.250;7.456;2022-12-05T11:17:51;10.78;64.24
22917;DHT22;11624;53.250;7.456;2022-12-05T11:20:35;10.80;63.53
22917;DHT22;11624;53.250;7.456;2022-12-05T11:23:23;10.73;64.37
22917;DHT22;11624;53.250;7.456;2022-12-05T11:25:53;10.75;64.19
22917;DHT22;11624;53.250;7.456;2022-12-05T11:28:33;10.73;64.05
22917;DHT22;11624;53.250;7.456;2022-12-05T11:31:03;10.75;64.27
22917;DHT22;11624;53.250;7.456;2022-12-05T11:33:33;10.83;64.03
22917;DHT22;11624;53.250;7.456;2022-12-05T11:36:10;10.81;63.79
22917;DHT22;11624;53.250;7.456;2022-12-05T11:38:40;10.83;64.16
22917;DHT22;11624;53.250;7.456;2022-12-05T11:41:30;10.84;63.74
22917;DHT22;11624;53.250;7.456;2022-12-05T11:44:11;10.82;63.70
22917;DHT22;11624;53.250;7.456;2022-12-05T11:46:52;10.75;63.65
22917;DHT22;11624;53.250;7.456;2022-12-05T11:49:37;10.75;63.89
22917;DHT22;11624;53.250;7.456;2022-12-05T11:52:23;10.79;63.66
22917;DHT22;11624;53.250;7.456;2022-12-05T11:54:56;10.74;64.13
22917;DHT22;11624;53.250;7.456;2022-12-05T11:57:56;10.71;63.66
22917;DHT22;11624;53.250;7.456;2022-12-05T12:00:32;10.79;63.99
22917;DHT22;11624;53.250;7.456;2022-12-05T12:03:36;10.78;63.92
22917;DHT22;11624;53.250;7.456;2022-12-05T12:06:24;10.86;63.87
22917;DHT22;11624;53.250;7.456;2022-12-05T12:09:11;10.90;63.55
22917;DHT22;11624;53.250;7.456;2022-12-05T12:11:48;10.90;63.88
22917;DHT22;11624;53.250;7.456;2022-12-05T12:14:26;10.94;63.86
22917;DHT22;11624;53.250;7.456;2022-12-05T12:17:06;10.98;63.65
22917;DHT22;11624;53.250;7.456;2022-12-05T12:19:52;11.02;63.78
22917;DHT22;11624;53.250;7.456;2022-12-05T12:22:41;11.07;63.68
22917;DHT22;11624;53.250;7.456;2022-12-05T12:25:32;11.07;63.54
22917;DHT22;11624;53.250;7.456;2022-12-05T12:28:15;11.09;63.50
22917;DHT22;11624;53.250;7.456;2022-12-05T12:31:01;11.04;63.26
22917;DHT22;11624;53.250;7.456;2022-12-05T12:33:38;11.02;63.82
22917;DHT22;11624;53.250;7.456;2022-12-05T12:36:15;11.05;63.65
22917;DHT22;11624;53.250;7.456;2022-12-05T12:39:02;11.01;63.63
22917;DHT22;11624;53.250;7.456;2022-12-05T12:41:44;11.03;63.68
22917;DHT22;11624;53.250;7.456;2022-12-05T12:44:42;11.08;63.68
22917;DHT22;11624;53.250;7.456;2022-12-05T12:47:16;11.14;63.37
22917;DHT22;11624;53.250;7.456;2022-12-05T12:49:55;11.14;63.60
22917;DHT22;11624;53.250;7.456;2022-12-05T12:52:29;11.16;63.66
22917;DHT22;11624;53.250;7.456;2022-12-05T12:55:18;11.16;63.10
22917;DHT22;11624;53.250;7.456;2022-12-05T12:58:01;11.03;63.34
22917;DHT22;11624;53.250;7.456;2022-12-05T13:00:45;11.08;63.38
22917;DHT22;11624;53.250;7.456;2022-12-05T13:03:23;11.03;63.31
22917;DHT22;11624;53.250;7.456;2022-12-05T13:05:54;11.04;63.54
22917;DHT22;11624;53.250;7.456;2022-12-05T13:08:28;11.04;63.56
22917;DHT22;11624;53.250;7.456;2022-12-05T13:11:03;11.03;63.53
22917;DHT22;11624;53.250;7.456;2022-12-05T13:13:37;11.04;63.49
22917;DHT22;11624;53.250;7.456;2022-12-05T13:16:07;11.03;63.44
22917;DHT22;11624;53.250;7.456;2022-12-05T13:18:37;11.02;63.52
22917;DHT22;11624;53.250;7.456;2022-12-05T13:21:07;11.08;63.40
22917;DHT22;11624;53.250;7.456;2022-12-05T13:23:41;11.04;63.27
22917;DHT22;11624;53.250;7.456;2022-12-05T13:26:11;10.96;63.33
22917;DHT22;11624;53.250;7.456;2022-12-05T13:28:48;10.84;63.42
22917;DHT22;11624;53.250;7.456;2022-12-05T13:31:17;10.88;63.65
22917;DHT22;11624;53.250;7.456;2022-12-05T13:33:49;10.90;63.53
22917;DHT22;11624;53.250;7.456;2022-12-05T13:36:20;10.89;63.49
22917;DHT22;11624;53.250;7.456;2022-12-05T13:39:17;10.81;63.15
22917;DHT22;11624;53.250;7.456;2022-12-05T13:42:03;10.82;63.60
22917;DHT22;11624;53.250;7.456;2022-12-05T13:44:43;10.72;64.01
22917;DHT22;11624;53.250;7.456;2022-12-05T13:47:24;10.79;63.66
22917;DHT22;11624;53.250;7.456;2022-12-05T13:49:58;10.83;63.80
22917;DHT22;11624;53.250;7.456;2022-12-05T13:52:30;10.86;63.89
22917;DHT22;11624;53.250;7.456;2022-12-05T13:55:02;10.94;63.71
22917;DHT22;11624;53.250;7.456;2022-12-05T13:57:50;10.90;63.35
22917;DHT22;11624;53.250;7.456;2022-12-05T14:00:33;10.89;63.58
22917;DHT22;11624;53.250;7.456;2022-12-05T14:03:15;10.83;63.43
22917;DHT22;11624;53.250;7.456;2022-12-05T14:05:50;10.79;63.74
22917;DHT22;11624;53.250;7.456;2022-12-05T14:11:20;10.79;64.05
22917;DHT22;11624;53.250;7.456;2022-12-05T14:13:48;10.81;64.03
22917;DHT22;11624;53.250;7.456;2022-12-05T14:16:50;10.83;63.68
22917;DHT22;11624;53.250;7.456;2022-12-05T14:19:51;10.88;63.64
22917;DHT22;11624;53.250;7.456;2022-12-05T14:22:36;10.87;63.47
22917;DHT22;11624;53.250;7.456;2022-12-05T14:25:16;10.85;63.79
22917;DHT22;11624;53.250;7.456;2022-12-05T14:27:55;10.83;63.85
22917;DHT22;11624;53.250;7.456;2022-12-05T14:30:33;10.84;63.83
22917;DHT22;11624;53.250;7.456;2022-12-05T14:33:12;10.88;63.82
22917;DHT22;11624;53.250;7.456;2022-12-05T14:35:45;10.88;63.80
22917;DHT22;11624;53.250;7.456;2022-12-05T14:38:26;10.87;63.49
22917;DHT22;11624;53.250;7.456;2022-12-05T14:40:56;10.87;63.74
22917;DHT22;11624;53.250;7.456;2022-12-05T14:43:37;10.86;63.89
22917;DHT22;11624;53.250;7.456;2022-12-05T14:46:07;10.89;63.82
22917;DHT22;11624;53.250;7.456;2022-12-05T14:48:42;10.82;63.70
22917;DHT22;11624;53.250;7.456;2022-12-05T14:51:42;10.73;63.53
22917;DHT22;11624;53.250;7.456;2022-12-05T14:54:14;10.72;63.85
22917;DHT22;11624;53.250;7.456;2022-12-05T14:56:46;10.78;64.01
22917;DHT22;11624;53.250;7.456;2022-12-05T14:59:22;10.77;63.68
22917;DHT22;11624;53.250;7.456;2022-12-05T15:01:54;10.70;64.05
22917;DHT22;11624;53.250;7.456;2022-12-05T15:04:30;10.72;63.73
22917;DHT22;11624;53.250;7.456;2022-12-05T15:07:03;10.73;64.01
22917;DHT22;11624;53.250;7.456;2022-12-05T15:09:42;10.74;63.74
22917;DHT22;11624;53.250;7.456;2022-12-05T15:12:15;10.72;64.01
22917;DHT22;11624;53.250;7.456;2022-12-05T15:14:48;10.73;64.11
22917;DHT22;11624;53.250;7.456;2022-12-05T15:17:26;10.71;63.91
22917;DHT22;11624;53.250;7.456;2022-12-05T15:20:02;10.72;64.15
22917;DHT22;11624;53.250;7.456;2022-12-05T15:22:33;10.80;64.03
22917;DHT22;11624;53.250;7.456;2022-12-05T15:25:23;10.72;63.78
22917;DHT22;11624;53.250;7.456;2022-12-05T15:27:58;10.72;63.90
22917;DHT22;11624;53.250;7.456;2022-12-05T15:30:28;10.75;63.94
22917;DHT22;11624;53.250;7.456;2022-12-05T15:32:56;10.69;64.10
22917;DHT22;11624;53.250;7.456;2022-12-05T15:35:28;10.71;64.10
22917;DHT22;11624;53.250;7.456;2022-12-05T15:38:03;10.72;64.01
22917;DHT22;11624;53.250;7.456;2022-12-05T15:40:36;10.71;64.05
22917;DHT22;11624;53.250;7.456;2022-12-05T15:43:27;10.73;63.75
22917;DHT22;11624;53.250;7.456;2022-12-05T15:46:07;10.72;63.75
22917;DHT22;11624;53.250;7.456;2022-12-05T15:48:35;10.73;64.05
22917;DHT22;11624;53.250;7.456;2022-12-05T15:51:03;10.73;64.08
22917;DHT22;11624;53.250;7.456;2022-12-05T15:53:34;10.73;63.99
22917;DHT22;11624;53.250;7.456;2022-12-05T15:56:08;10.73;63.69
22917;DHT22;11624;53.250;7.456;2022-12-05T15:58:42;10.73;63.79
22917;DHT22;11624;53.250;7.456;2022-12-05T16:01:15;10.69;63.88
22917;DHT22;11624;53.250;7.456;2022-12-05T16:03:48;10.70;63.82
22917;DHT22;11624;53.250;7.456;2022-12-05T16:06:21;10.67;63.88
22917;DHT22;11624;53.250;7.456;2022-12-05T16:08:52;10.69;64.07
22917;DHT22;11624;53.250;7.456;2022-12-05T16:11:21;10.70;64.02
22917;DHT22;11624;53.250;7.456;2022-12-05T16:13:53;10.72;63.96
22917;DHT22;11624;53.250;7.456;2022-12-05T16:16:25;10.74;63.95